createdAt,value
2017-12-27T00:02:18.351Z,7.45
2017-12-27T00:04:52.258Z,8.52
2017-12-27T00:20:54.443Z,7.40
2017-12-27T00:23:28.262Z,5.95
2017-12-27T00:26:02.037Z,6.50
2017-12-27T00:28:35.702Z,7.18
2017-12-27T00:44:27.058Z,7.30
2017-12-27T00:46:55.193Z,7.40
2017-12-27T00:49:23.404Z,8.50
2017-12-27T00:51:51.538Z,8.32
2017-12-27T00:54:20.045Z,7.75
2017-12-27T00:56:48.183Z,7.43
2017-12-27T00:59:16.297Z,6.55
2017-12-27T01:01:44.421Z,7.30
2017-12-27T01:04:12.549Z,7.25
2017-12-27T01:06:40.673Z,7.60
2017-12-27T01:09:08.794Z,8.48
2017-12-27T01:11:37.712Z,7.90
2017-12-27T01:14:05.829Z,7.15
2017-12-27T01:16:33.996Z,6.80
2017-12-27T01:19:02.125Z,6.95
2017-12-27T01:21:30.265Z,6.32
2017-12-27T01:23:58.430Z,7.22
2017-12-27T01:26:26.796Z,6.65
2017-12-27T01:28:54.984Z,6.87
2017-12-27T01:31:23.052Z,7.00
2017-12-27T01:33:51.200Z,7.40
2017-12-27T01:36:19.320Z,6.95
2017-12-27T01:38:47.444Z,7.62
2017-12-27T01:41:16.121Z,7.15
2017-12-27T01:43:44.248Z,8.20
2017-12-27T01:46:12.419Z,7.72
2017-12-27T01:48:40.520Z,6.95
2017-12-27T01:51:08.792Z,8.80
2017-12-27T01:53:36.908Z,7.72
2017-12-27T01:56:05.037Z,8.15
2017-12-27T01:58:33.149Z,8.63
2017-12-27T02:01:01.282Z,8.65
2017-12-27T02:03:29.412Z,8.40
2017-12-27T02:05:58.379Z,8.88
2017-12-27T02:08:26.540Z,7.45
2017-12-27T02:10:54.693Z,7.60
2017-12-27T02:13:22.854Z,8.77
2017-12-27T02:15:50.964Z,9.45
2017-12-27T02:18:19.099Z,8.75
2017-12-27T02:20:47.228Z,8.45
2017-12-27T02:23:15.358Z,8.25
2017-12-27T02:25:43.483Z,6.95
2017-12-27T02:28:12.367Z,7.30
2017-12-27T02:30:41.390Z,8.00
2017-12-27T02:33:09.514Z,7.68
2017-12-27T02:35:37.633Z,7.57
2017-12-27T02:38:05.785Z,7.20
2017-12-27T02:40:33.920Z,8.57
2017-12-27T02:43:02.066Z,8.48
2017-12-27T02:45:30.213Z,8.05
2017-12-27T02:47:58.350Z,7.97
2017-12-27T02:50:26.550Z,8.07
2017-12-27T02:52:54.737Z,8.88
2017-12-27T02:55:22.922Z,8.00
2017-12-27T02:57:51.062Z,8.35
2017-12-27T03:00:19.936Z,7.30
2017-12-27T03:02:48.850Z,7.10
2017-12-27T03:05:16.996Z,7.10
2017-12-27T03:07:45.114Z,6.85
2017-12-27T03:10:13.325Z,6.95
2017-12-27T03:12:41.867Z,6.68
2017-12-27T03:15:10.241Z,6.50
2017-12-27T03:17:38.428Z,5.40
2017-12-27T03:20:06.666Z,5.78
2017-12-27T03:22:35.889Z,5.75
2017-12-27T03:25:04.344Z,4.55
2017-12-27T03:27:33.561Z,4.75
2017-12-27T03:30:01.671Z,5.03
2017-12-27T03:32:29.792Z,4.50
2017-12-27T03:34:57.911Z,4.62
2017-12-27T03:37:26.088Z,4.55
2017-12-27T03:39:54.230Z,4.55
2017-12-27T03:42:23.690Z,4.30
2017-12-27T03:44:52.603Z,4.65
2017-12-27T03:47:20.737Z,5.00
2017-12-27T03:49:48.857Z,5.03
2017-12-27T03:52:17.002Z,5.00
2017-12-27T03:54:45.398Z,4.50
2017-12-27T03:57:13.776Z,4.07
2017-12-27T03:59:41.974Z,4.37
2017-12-27T04:02:10.152Z,4.40
2017-12-27T04:04:38.914Z,4.45
2017-12-27T04:07:07.231Z,4.12
2017-12-27T04:09:44.607Z,4.55
2017-12-27T04:12:14.193Z,4.32
2017-12-27T04:14:42.516Z,3.70
2017-12-27T04:17:11.417Z,4.37
2017-12-27T04:19:39.674Z,4.72
2017-12-27T04:22:07.840Z,4.30
2017-12-27T04:24:36.130Z,4.10
2017-12-27T04:27:04.439Z,4.05
2017-12-27T04:29:32.709Z,5.07
2017-12-27T04:32:00.956Z,4.65
2017-12-27T04:34:29.200Z,4.00
2017-12-27T04:36:57.506Z,4.68
2017-12-27T04:39:25.915Z,5.53
2017-12-27T04:41:55.147Z,4.72
2017-12-27T04:44:28.242Z,5.07
2017-12-27T04:46:56.486Z,5.60
2017-12-27T04:49:26.147Z,5.80
2017-12-27T04:51:54.442Z,4.60
2017-12-27T04:54:22.708Z,4.50
2017-12-27T04:56:51.603Z,4.40
2017-12-27T04:59:20.673Z,4.00
2017-12-27T05:01:49.618Z,4.03
2017-12-27T05:04:17.790Z,4.40
2017-12-27T05:06:46.026Z,4.47
2017-12-27T05:09:15.006Z,3.97
2017-12-27T05:11:43.384Z,4.10
2017-12-27T05:14:12.102Z,3.62
2017-12-27T05:16:40.416Z,4.60
2017-12-27T05:19:08.898Z,4.35
2017-12-27T05:21:37.418Z,4.45
2017-12-27T05:24:06.568Z,4.18
2017-12-27T05:26:35.995Z,4.78
2017-12-27T05:29:04.143Z,5.03
2017-12-27T05:31:32.472Z,5.00
2017-12-27T05:34:01.553Z,4.90
2017-12-27T05:36:29.736Z,5.43
2017-12-27T05:38:57.864Z,4.95
2017-12-27T05:41:25.967Z,4.78
2017-12-27T05:43:54.087Z,5.12
2017-12-27T05:46:22.201Z,4.70
2017-12-27T05:48:51.088Z,4.65
2017-12-27T05:51:19.980Z,4.80
2017-12-27T05:53:48.868Z,4.57
2017-12-27T05:56:17.740Z,4.28
2017-12-27T05:58:46.632Z,4.05
2017-12-27T06:01:15.611Z,4.78
2017-12-27T06:03:43.760Z,5.00
2017-12-27T06:06:11.875Z,4.30
2017-12-27T06:08:40.057Z,5.12
2017-12-27T06:11:08.937Z,5.50
2017-12-27T06:13:37.832Z,5.75
2017-12-27T06:16:06.708Z,6.10
2017-12-27T06:18:35.608Z,5.43
2017-12-27T06:21:04.565Z,5.57
2017-12-27T06:23:32.678Z,5.80
2017-12-27T06:26:01.585Z,6.15
2017-12-27T06:28:29.696Z,5.75
2017-12-27T06:30:57.845Z,5.80
2017-12-27T06:33:25.955Z,5.90
2017-12-27T06:35:54.101Z,5.12
2017-12-27T06:38:22.208Z,7.00
2017-12-27T06:40:51.097Z,6.50
2017-12-27T06:43:19.213Z,6.97
2017-12-27T06:45:47.464Z,6.70
2017-12-27T06:48:16.643Z,8.23
2017-12-27T06:50:44.879Z,6.65
2017-12-27T06:53:13.022Z,6.00
2017-12-27T06:55:41.300Z,7.57
2017-12-27T06:58:09.430Z,6.30
2017-12-27T07:00:37.619Z,6.57
2017-12-27T07:03:06.025Z,7.10
2017-12-27T07:05:34.166Z,7.25
2017-12-27T07:08:02.569Z,6.65
2017-12-27T07:10:31.026Z,7.62
2017-12-27T07:12:59.259Z,7.53
2017-12-27T07:15:27.566Z,8.20
2017-12-27T07:17:55.954Z,7.10
2017-12-27T07:20:24.164Z,6.32
2017-12-27T07:22:52.368Z,6.03
2017-12-27T07:25:20.718Z,6.35
2017-12-27T07:27:49.070Z,6.00
2017-12-27T07:30:17.335Z,5.80
2017-12-27T07:32:45.686Z,6.10
2017-12-27T07:35:14.713Z,6.43
2017-12-27T07:37:42.956Z,6.00
2017-12-27T07:40:11.528Z,5.78
2017-12-27T07:42:39.811Z,5.85
2017-12-27T07:45:08.086Z,5.70
2017-12-27T07:47:36.332Z,5.65
2017-12-27T07:50:05.386Z,6.15
2017-12-27T07:52:33.568Z,6.82
2017-12-27T07:55:01.696Z,6.87
2017-12-27T07:57:30.600Z,6.18
2017-12-27T07:59:58.709Z,5.97
2017-12-27T08:02:26.844Z,5.03
2017-12-27T08:04:54.951Z,6.72
2017-12-27T08:07:23.085Z,5.68
2017-12-27T08:09:51.245Z,5.00
2017-12-27T08:12:19.446Z,6.60
2017-12-27T08:14:47.587Z,5.45
2017-12-27T08:17:15.824Z,6.95
2017-12-27T08:19:43.969Z,6.07
2017-12-27T08:22:12.384Z,5.90
2017-12-27T08:24:40.533Z,5.82
2017-12-27T08:27:08.713Z,5.50
2017-12-27T08:29:36.849Z,6.75
2017-12-27T08:32:05.029Z,6.68
2017-12-27T08:34:33.342Z,6.37
2017-12-27T08:37:01.500Z,7.28
2017-12-27T08:39:29.697Z,6.45
2017-12-27T08:41:57.881Z,6.43
2017-12-27T08:44:26.091Z,6.90
2017-12-27T08:46:54.263Z,5.97
2017-12-27T08:49:22.502Z,6.53
2017-12-27T08:51:50.949Z,7.12
2017-12-27T08:54:19.110Z,7.10
2017-12-27T08:56:47.327Z,6.45
2017-12-27T08:59:16.284Z,6.32
2017-12-27T09:01:44.454Z,5.87
2017-12-27T09:04:12.664Z,6.15
2017-12-27T09:06:40.931Z,7.22
2017-12-27T09:09:09.905Z,5.75
2017-12-27T09:11:38.021Z,5.25
2017-12-27T09:14:07.376Z,6.30
2017-12-27T09:16:35.848Z,6.28
2017-12-27T09:19:04.832Z,5.72
2017-12-27T09:21:33.257Z,5.15
2017-12-27T09:24:01.537Z,6.95
2017-12-27T09:26:30.025Z,7.62
2017-12-27T09:28:58.235Z,6.28
2017-12-27T09:31:27.508Z,6.00
2017-12-27T09:33:55.644Z,6.53
2017-12-27T09:36:24.059Z,7.10
2017-12-27T09:38:53.401Z,6.70
2017-12-27T09:41:21.594Z,6.82
2017-12-27T09:43:49.831Z,7.40
2017-12-27T09:46:17.980Z,7.53
2017-12-27T09:48:46.321Z,7.90
2017-12-27T09:51:15.212Z,8.30
2017-12-27T09:53:43.418Z,6.97
2017-12-27T09:56:11.529Z,8.15
2017-12-27T09:58:39.748Z,7.40
2017-12-27T10:01:07.974Z,8.63
2017-12-27T10:03:36.678Z,6.70
2017-12-27T10:06:04.854Z,7.03
2017-12-27T10:08:32.984Z,6.95
2017-12-27T10:11:01.121Z,6.57
2017-12-27T10:13:29.236Z,6.37
2017-12-27T10:15:57.375Z,7.35
2017-12-27T10:18:25.488Z,7.87
2017-12-27T10:20:53.616Z,6.27
2017-12-27T10:23:21.751Z,6.03
2017-12-27T10:25:50.644Z,7.10
2017-12-27T10:28:19.520Z,6.43
2017-12-27T10:30:47.664Z,14.10
2017-12-27T10:33:15.792Z,8.73
2017-12-27T10:35:43.926Z,8.33
2017-12-27T10:38:12.041Z,7.53
2017-12-27T10:40:40.171Z,6.93
2017-12-27T10:43:08.280Z,6.80
2017-12-27T10:45:36.404Z,7.10
2017-12-27T10:48:04.516Z,7.63
2017-12-27T10:50:32.647Z,7.03
2017-12-27T10:53:00.814Z,7.00
2017-12-27T10:55:28.947Z,7.00
2017-12-27T10:57:57.076Z,9.20
2017-12-27T11:00:25.208Z,9.53
2017-12-27T11:02:53.340Z,8.20
2017-12-27T11:05:21.480Z,7.43
2017-12-27T11:07:49.609Z,6.73
2017-12-27T11:10:17.756Z,7.20
2017-12-27T11:12:45.915Z,6.50
2017-12-27T11:15:14.885Z,6.83
2017-12-27T11:17:43.006Z,6.57
2017-12-27T11:20:11.165Z,6.57
2017-12-27T11:22:39.292Z,6.63
2017-12-27T11:25:07.453Z,6.20
2017-12-27T11:27:35.566Z,7.10
2017-12-27T11:30:04.484Z,6.50
2017-12-27T11:32:32.575Z,7.63
2017-12-27T11:35:00.721Z,7.40
2017-12-27T11:37:28.832Z,7.90
2017-12-27T11:39:56.969Z,6.90
2017-12-27T11:42:25.105Z,6.90
2017-12-27T11:44:54.046Z,6.27
2017-12-27T11:47:22.154Z,6.60
2017-12-27T11:49:50.243Z,6.80
2017-12-27T11:52:18.428Z,7.00
2017-12-27T11:54:46.551Z,7.07
2017-12-27T11:57:14.668Z,6.47
2017-12-27T11:59:42.783Z,6.33
2017-12-27T12:02:11.105Z,6.10
2017-12-27T12:04:39.213Z,5.23
2017-12-27T12:07:07.394Z,6.97
2017-12-27T12:09:35.532Z,5.60
2017-12-27T12:12:03.665Z,6.30
2017-12-27T12:14:31.788Z,6.40
2017-12-27T12:16:59.901Z,7.03
2017-12-27T12:19:28.013Z,5.87
2017-12-27T12:21:56.165Z,6.10
2017-12-27T12:24:24.280Z,6.17
2017-12-27T12:26:52.413Z,6.93
2017-12-27T12:29:20.523Z,6.20
2017-12-27T12:31:48.655Z,6.40
2017-12-27T12:34:16.784Z,6.37
2017-12-27T12:36:44.919Z,7.80
2017-12-27T12:39:13.587Z,7.70
2017-12-27T12:41:41.712Z,7.27
2017-12-27T12:44:09.848Z,7.47
2017-12-27T12:46:37.968Z,8.23
2017-12-27T12:49:06.121Z,8.50
2017-12-27T12:51:34.228Z,7.70
2017-12-27T12:54:03.104Z,8.10
2017-12-27T12:56:31.998Z,8.43
2017-12-27T12:59:00.909Z,9.17
2017-12-27T13:01:29.779Z,8.40
2017-12-27T13:03:58.730Z,8.50
2017-12-27T13:06:26.840Z,8.67
2017-12-27T13:08:54.990Z,7.73
2017-12-27T13:11:23.144Z,8.00
2017-12-27T13:13:51.265Z,8.30
2017-12-27T13:16:20.169Z,7.60
2017-12-27T13:18:48.406Z,6.80
2017-12-27T13:21:18.032Z,8.03
2017-12-27T13:23:46.144Z,7.60
2017-12-27T13:26:14.297Z,8.37
2017-12-27T13:28:42.470Z,8.60
2017-12-27T13:31:10.624Z,8.53
2017-12-27T13:33:39.499Z,8.20
2017-12-27T13:36:08.469Z,8.43
2017-12-27T13:38:36.584Z,8.50
2017-12-27T13:41:04.714Z,8.07
2017-12-27T13:43:32.828Z,7.50
2017-12-27T13:46:00.974Z,7.80
2017-12-27T13:48:29.849Z,7.30
2017-12-27T13:50:57.987Z,7.80
2017-12-27T13:53:26.112Z,9.30
2017-12-27T13:55:55.249Z,9.90
2017-12-27T13:58:23.389Z,14.80
2017-12-27T14:00:51.554Z,11.40
2017-12-27T14:03:19.679Z,9.93
2017-12-27T14:05:47.805Z,9.37
2017-12-27T14:08:15.989Z,11.60
2017-12-27T14:10:44.151Z,8.00
2017-12-27T14:13:12.320Z,7.90
2017-12-27T14:15:40.482Z,14.27
2017-12-27T14:18:08.648Z,17.20
2017-12-27T14:20:36.813Z,13.07
2017-12-27T14:23:05.737Z,10.77
2017-12-27T14:25:33.860Z,11.20
2017-12-27T14:28:06.818Z,10.87
2017-12-27T14:30:38.017Z,10.17
2017-12-27T14:33:06.145Z,8.80
2017-12-27T14:35:34.282Z,9.50
2017-12-27T14:38:02.423Z,9.00
2017-12-27T14:40:31.308Z,8.30
2017-12-27T14:43:00.221Z,9.13
2017-12-27T14:45:29.084Z,7.50
2017-12-27T14:47:57.217Z,8.20
2017-12-27T14:50:25.328Z,8.10
2017-12-27T14:52:54.243Z,10.27
2017-12-27T14:55:22.380Z,10.47
2017-12-27T14:57:50.561Z,10.03
2017-12-27T15:00:19.460Z,9.10
2017-12-27T15:02:48.440Z,9.40
2017-12-27T15:05:16.572Z,8.63
2017-12-27T15:07:44.787Z,9.93
2017-12-27T15:10:13.688Z,9.50
2017-12-27T15:12:41.846Z,8.43
2017-12-27T15:15:09.999Z,7.67
2017-12-27T15:17:38.084Z,8.17
2017-12-27T15:20:06.695Z,10.67
2017-12-27T15:22:34.823Z,11.43
2017-12-27T15:25:02.967Z,13.47
2017-12-27T15:27:31.090Z,13.23
2017-12-27T15:29:59.995Z,15.67
2017-12-27T15:32:28.120Z,26.00
2017-12-27T15:34:56.252Z,18.70
2017-12-27T15:37:24.377Z,12.53
2017-12-27T15:39:53.333Z,10.25
2017-12-27T15:42:21.465Z,14.43
2017-12-27T15:44:49.600Z,11.65
2017-12-27T15:47:17.723Z,10.40
2017-12-27T15:49:45.864Z,11.00
2017-12-27T15:52:14.769Z,11.00
2017-12-27T15:54:43.660Z,11.60
2017-12-27T15:57:11.842Z,11.27
2017-12-27T15:59:39.976Z,10.63
2017-12-27T16:02:08.919Z,15.43
2017-12-27T16:04:37.434Z,17.05
2017-12-27T16:07:05.557Z,14.45
2017-12-27T16:09:34.109Z,12.60
2017-12-27T16:12:02.245Z,13.63
2017-12-27T16:14:30.376Z,13.23
2017-12-27T16:16:58.529Z,11.38
2017-12-27T16:19:27.442Z,15.70
2017-12-27T16:21:55.591Z,15.00
2017-12-27T16:24:23.736Z,13.25
2017-12-27T16:26:51.887Z,16.50
2017-12-27T16:29:20.038Z,14.03
2017-12-27T16:31:48.297Z,16.87
2017-12-27T16:34:16.449Z,15.43
2017-12-27T16:36:45.398Z,15.20
2017-12-27T16:39:13.585Z,15.03
2017-12-27T16:41:41.730Z,14.90
2017-12-27T16:44:09.985Z,15.40
2017-12-27T16:46:38.181Z,15.60
2017-12-27T16:49:06.304Z,16.87
2017-12-27T16:51:35.682Z,14.48
2017-12-27T16:54:04.034Z,15.03
2017-12-27T16:56:32.827Z,14.70
2017-12-27T16:59:01.063Z,16.20
2017-12-27T17:01:29.343Z,15.20
2017-12-27T17:03:57.479Z,18.17
2017-12-27T17:06:25.598Z,19.70
2017-12-27T17:08:53.766Z,17.40
2017-12-27T17:11:23.837Z,17.47
2017-12-27T17:13:52.789Z,20.07
2017-12-27T17:16:21.047Z,20.23
2017-12-27T17:18:49.260Z,19.48
2017-12-27T17:21:18.185Z,20.45
2017-12-27T17:23:46.447Z,20.05
2017-12-27T17:26:14.686Z,20.60
2017-12-27T17:28:43.642Z,19.02
2017-12-27T17:31:11.822Z,19.90
2017-12-27T17:33:39.984Z,17.67
2017-12-27T17:36:08.175Z,22.27
2017-12-27T17:38:38.175Z,26.48
2017-12-27T17:41:06.522Z,20.88
2017-12-27T17:43:34.873Z,18.30
2017-12-27T17:46:03.070Z,16.95
2017-12-27T17:48:31.952Z,16.80
2017-12-27T17:51:00.077Z,17.95
2017-12-27T17:53:28.264Z,18.62
2017-12-27T17:55:58.860Z,15.90
2017-12-27T17:58:27.025Z,18.67
2017-12-27T18:00:55.283Z,18.87
2017-12-27T18:03:24.169Z,18.75
2017-12-27T18:05:52.456Z,21.30
2017-12-27T18:08:20.766Z,20.17
2017-12-27T18:10:48.917Z,19.80
2017-12-27T18:13:17.092Z,21.65
2017-12-27T18:15:45.324Z,18.52
2017-12-27T18:18:14.320Z,18.10
2017-12-27T18:20:43.242Z,21.27
2017-12-27T18:23:11.437Z,21.40
2017-12-27T18:25:39.604Z,19.52
2017-12-27T18:28:07.763Z,20.27
2017-12-27T18:30:35.921Z,21.25
2017-12-27T18:33:04.213Z,20.58
2017-12-27T18:35:32.393Z,21.33
2017-12-27T18:38:00.531Z,20.92
2017-12-27T18:40:28.697Z,23.67
2017-12-27T18:42:57.623Z,24.25
2017-12-27T18:45:25.805Z,23.55
2017-12-27T18:47:53.954Z,24.63
2017-12-27T18:50:22.134Z,24.70
2017-12-27T18:52:50.361Z,25.55
2017-12-27T18:55:18.521Z,22.70
2017-12-27T18:57:46.816Z,23.98
2017-12-27T19:00:15.003Z,30.05
2017-12-27T19:02:43.168Z,23.55
2017-12-27T19:05:12.127Z,24.45
2017-12-27T19:07:40.300Z,26.70
2017-12-27T19:10:08.443Z,31.15
2017-12-27T19:12:36.625Z,21.85
2017-12-27T19:15:04.803Z,20.55
2017-12-27T19:17:33.016Z,25.17
2017-12-27T19:20:01.943Z,24.80
2017-12-27T19:22:30.144Z,21.02
2017-12-27T19:24:58.295Z,26.85
2017-12-27T19:27:26.464Z,26.98
2017-12-27T19:29:54.789Z,25.33
2017-12-27T19:32:24.038Z,27.08
2017-12-27T19:34:52.224Z,23.50
2017-12-27T19:37:20.383Z,26.40
2017-12-27T19:39:48.556Z,20.15
2017-12-27T19:42:16.739Z,19.90
2017-12-27T19:44:44.886Z,21.75
2017-12-27T19:47:13.091Z,25.80
2017-12-27T19:49:46.208Z,24.25
2017-12-27T19:52:16.865Z,28.35
2017-12-27T19:54:46.118Z,33.83
2017-12-27T19:57:14.328Z,25.52
2017-12-27T19:59:43.791Z,30.80
2017-12-27T20:02:13.232Z,39.08
2017-12-27T20:04:46.319Z,29.17
2017-12-27T20:07:15.806Z,27.42
2017-12-27T20:09:45.763Z,25.62
2017-12-27T20:12:14.633Z,21.60
2017-12-27T20:14:43.783Z,21.92
2017-12-27T20:17:13.492Z,18.95
2017-12-27T20:19:43.465Z,17.05
2017-12-27T20:22:11.935Z,19.92
2017-12-27T20:24:41.456Z,18.10
2017-12-27T20:27:10.813Z,17.83
2017-12-27T20:29:41.830Z,16.85
2017-12-27T20:32:10.896Z,17.08
2017-12-27T20:34:39.688Z,16.70
2017-12-27T20:37:09.652Z,16.98
2017-12-27T20:39:38.472Z,18.98
2017-12-27T20:42:08.464Z,19.05
2017-12-27T20:44:37.397Z,17.55
2017-12-27T20:47:07.809Z,17.27
2017-12-27T20:49:36.399Z,13.83
2017-12-27T20:52:05.500Z,14.77
2017-12-27T20:54:34.900Z,14.68
2017-12-27T20:57:03.796Z,15.02
2017-12-27T20:59:33.790Z,13.13
2017-12-27T21:02:06.277Z,14.00
2017-12-27T21:04:34.747Z,13.97
2017-12-27T21:07:04.663Z,15.23
2017-12-27T21:09:33.899Z,14.17
2017-12-27T21:12:03.178Z,18.47
2017-12-27T21:14:31.836Z,14.73
2017-12-27T21:17:01.403Z,17.73
2017-12-27T21:19:30.400Z,13.55
2017-12-27T21:22:00.129Z,14.02
2017-12-27T21:24:28.786Z,17.42
2017-12-27T21:26:56.981Z,15.23
2017-12-27T21:29:25.197Z,16.25
2017-12-27T21:31:53.391Z,18.75
2017-12-27T21:34:22.939Z,16.90
2017-12-27T21:36:51.105Z,14.52
2017-12-27T21:39:19.270Z,16.85
2017-12-27T21:41:47.432Z,14.57
2017-12-27T21:44:16.375Z,14.00
2017-12-27T21:46:44.542Z,17.17
2017-12-27T21:49:18.364Z,17.60
2017-12-27T21:51:46.531Z,19.05
2017-12-27T21:54:14.716Z,17.60
2017-12-27T21:56:43.664Z,14.90
2017-12-27T21:59:17.496Z,15.07
2017-12-27T22:01:45.736Z,19.52
2017-12-27T22:04:13.919Z,16.73
2017-12-27T22:06:42.146Z,17.37
2017-12-27T22:09:11.129Z,16.70
2017-12-27T22:11:40.096Z,18.90
2017-12-27T22:14:09.097Z,16.85
2017-12-27T22:16:37.252Z,17.52
2017-12-27T22:19:05.426Z,21.90
2017-12-27T22:21:33.602Z,15.80
2017-12-27T22:24:03.680Z,15.52
2017-12-27T22:26:31.858Z,16.15
2017-12-27T22:29:00.104Z,15.60
2017-12-27T22:31:28.412Z,19.17
2017-12-27T22:33:56.772Z,17.75
2017-12-27T22:36:25.000Z,17.98
2017-12-27T22:38:53.271Z,17.50
2017-12-27T22:41:21.442Z,19.42
2017-12-27T22:43:49.610Z,19.90
2017-12-27T22:46:17.818Z,18.45
2017-12-27T22:48:46.742Z,16.98
2017-12-27T22:51:14.915Z,17.62
2017-12-27T22:53:43.103Z,17.33
2017-12-27T22:56:11.292Z,19.98
2017-12-27T22:58:40.653Z,19.45
2017-12-27T23:01:08.916Z,17.95
2017-12-27T23:03:37.062Z,18.08
2017-12-27T23:06:06.027Z,17.95
2017-12-27T23:08:34.206Z,22.80
2017-12-27T23:11:02.403Z,18.62
2017-12-27T23:13:31.343Z,19.35
2017-12-27T23:15:59.524Z,19.65
2017-12-27T23:18:27.687Z,17.37
2017-12-27T23:20:55.873Z,17.50
2017-12-27T23:23:24.048Z,16.27
2017-12-27T23:25:52.227Z,14.70
2017-12-27T23:28:20.586Z,17.30
2017-12-27T23:30:48.792Z,14.87
2017-12-27T23:33:17.742Z,17.08
2017-12-27T23:35:46.119Z,16.30
2017-12-27T23:38:14.276Z,17.75
2017-12-27T23:40:42.446Z,16.62
2017-12-27T23:43:10.641Z,16.23
2017-12-27T23:45:38.842Z,15.73
2017-12-27T23:48:07.001Z,15.95
2017-12-27T23:50:36.732Z,16.48
2017-12-27T23:53:04.915Z,19.70
2017-12-27T23:55:33.163Z,18.40
2017-12-27T23:58:01.308Z,15.93
